createdAt,value
2019-04-22T00:00:53.632Z,9.87
2019-04-22T00:02:00.492Z,9.80
2019-04-22T00:03:05.215Z,9.73
2019-04-22T00:04:10.868Z,9.17
2019-04-22T00:05:21.511Z,10.23
2019-04-22T00:06:42.915Z,12.60
2019-04-22T00:07:48.732Z,13.30
2019-04-22T00:08:55.886Z,14.00
2019-04-22T00:09:59.601Z,14.00
2019-04-22T00:11:07.945Z,13.87
2019-04-22T00:12:13.817Z,12.60
2019-04-22T00:13:21.894Z,13.30
2019-04-22T00:14:14.786Z,12.80
2019-04-22T00:15:19.981Z,13.33
2019-04-22T00:16:43.287Z,13.23
2019-04-22T00:18:54.891Z,13.37
2019-04-22T00:19:55.611Z,13.47
2019-04-22T00:20:52.712Z,13.90
2019-04-22T00:22:04.509Z,13.70
2019-04-22T00:23:03.699Z,13.03
2019-04-22T00:24:12.045Z,12.53
2019-04-22T00:25:22.596Z,13.30
2019-04-22T00:26:26.009Z,13.77
2019-04-22T00:27:29.536Z,14.50
2019-04-22T00:28:35.019Z,13.43
2019-04-22T00:29:49.364Z,13.33
2019-04-22T00:30:45.219Z,13.33
2019-04-22T00:31:53.091Z,13.00
2019-04-22T00:33:03.273Z,13.27
2019-04-22T00:34:09.354Z,11.73
2019-04-22T00:35:13.034Z,12.03
2019-04-22T00:36:23.737Z,10.97
2019-04-22T00:37:28.631Z,9.93
2019-04-22T00:38:39.498Z,9.40
2019-04-22T00:39:42.623Z,7.87
2019-04-22T00:40:49.101Z,8.40
2019-04-22T00:41:50.812Z,8.83
2019-04-22T00:42:55.277Z,9.80
2019-04-22T00:44:02.670Z,7.57
2019-04-22T00:45:06.365Z,8.83
2019-04-22T00:46:11.365Z,8.27
2019-04-22T00:47:23.230Z,8.13
2019-04-22T00:50:44.327Z,7.70
2019-04-22T00:51:44.720Z,7.67
2019-04-22T00:52:52.507Z,8.00
2019-04-22T00:53:51.231Z,6.90
2019-04-22T00:55:04.154Z,7.57
2019-04-22T00:56:07.391Z,6.70
2019-04-22T00:57:09.979Z,7.23
2019-04-22T00:58:19.172Z,6.93
2019-04-22T00:59:18.790Z,6.90
2019-04-22T01:01:31.093Z,6.57
2019-04-22T01:02:41.643Z,6.97
2019-04-22T01:05:09.870Z,6.70
2019-04-22T01:06:01.254Z,6.97
2019-04-22T01:06:57.573Z,7.60
2019-04-22T01:08:09.780Z,7.20
2019-04-22T01:09:10.882Z,7.83
2019-04-22T01:10:19.022Z,6.93
2019-04-22T01:11:29.653Z,7.03
2019-04-22T01:12:29.731Z,7.03
2019-04-22T01:13:34.344Z,7.83
2019-04-22T01:14:41.390Z,7.63
2019-04-22T01:16:09.357Z,6.80
2019-04-22T01:16:52.131Z,7.67
2019-04-22T01:18:00.278Z,7.53
2019-04-22T01:19:05.335Z,7.53
2019-04-22T01:20:45.763Z,8.03
2019-04-22T01:22:17.535Z,7.53
2019-04-22T01:23:24.605Z,7.33
2019-04-22T01:24:26.258Z,8.60
2019-04-22T01:25:31.266Z,9.17
2019-04-22T01:26:36.277Z,8.20
2019-04-22T01:27:39.242Z,9.30
2019-04-22T01:28:46.092Z,8.97
2019-04-22T01:29:48.964Z,8.33
2019-04-22T01:30:51.454Z,8.90
2019-04-22T01:31:51.005Z,9.10
2019-04-22T01:33:06.825Z,9.40
2019-04-22T01:34:16.159Z,8.20
2019-04-22T01:35:20.768Z,8.63
2019-04-22T01:36:30.286Z,8.37
2019-04-22T01:37:34.626Z,8.23
2019-04-22T01:38:56.321Z,9.37
2019-04-22T01:39:57.283Z,9.07
2019-04-22T01:41:04.490Z,10.93
2019-04-22T01:42:05.973Z,9.90
2019-04-22T01:45:29.523Z,10.90
2019-04-22T01:46:31.473Z,11.10
2019-04-22T01:48:39.397Z,11.53
2019-04-22T01:49:44.087Z,10.13
2019-04-22T01:50:49.683Z,10.10
2019-04-22T01:51:58.668Z,9.50
2019-04-22T01:55:21.639Z,9.60
2019-04-22T01:56:24.216Z,10.03
2019-04-22T01:57:20.852Z,9.47
2019-04-22T01:58:23.866Z,10.33
2019-04-22T01:59:30.178Z,10.07
2019-04-22T02:00:39.947Z,10.30
2019-04-22T02:02:48.745Z,8.60
2019-04-22T02:03:59.033Z,7.90
2019-04-22T02:05:02.902Z,8.50
2019-04-22T02:06:07.537Z,8.10
2019-04-22T02:07:09.657Z,8.80
2019-04-22T02:08:25.168Z,8.13
2019-04-22T02:09:31.741Z,8.37
2019-04-22T02:10:34.609Z,8.30
2019-04-22T02:11:39.085Z,8.17
2019-04-22T02:12:38.826Z,8.03
2019-04-22T02:13:42.823Z,8.17
2019-04-22T02:14:53.365Z,7.83
2019-04-22T02:17:02.340Z,7.90
2019-04-22T02:18:11.265Z,8.67
2019-04-22T02:19:18.488Z,8.33
2019-04-22T02:20:31.534Z,9.07
2019-04-22T02:21:20.438Z,8.33
2019-04-22T02:22:42.844Z,8.63
2019-04-22T02:24:41.215Z,8.37
2019-04-22T02:25:50.928Z,8.70
2019-04-22T02:27:00.322Z,9.17
2019-04-22T02:27:54.754Z,8.80
2019-04-22T02:28:53.660Z,9.40
2019-04-22T02:29:58.230Z,8.50
2019-04-22T02:32:28.090Z,10.13
2019-04-22T02:34:37.584Z,9.97
2019-04-22T02:35:58.209Z,9.40
2019-04-22T02:37:45.429Z,9.93
2019-04-22T02:40:03.845Z,9.37
2019-04-22T02:42:16.526Z,9.77
2019-04-22T02:43:30.781Z,9.60
2019-04-22T02:44:16.728Z,9.97
2019-04-22T02:45:26.470Z,10.77
2019-04-22T02:47:54.523Z,9.30
2019-04-22T02:49:45.474Z,8.57
2019-04-22T02:51:52.274Z,9.80
2019-04-22T02:53:13.879Z,9.67
2019-04-22T02:55:20.960Z,11.90
2019-04-22T02:58:47.798Z,12.93
2019-04-22T03:00:46.345Z,12.60
2019-04-22T03:05:11.321Z,16.60
2019-04-22T03:07:12.766Z,30.30
2019-04-22T03:08:24.004Z,30.53
2019-04-22T03:09:35.706Z,26.23
2019-04-22T03:10:47.236Z,24.00
2019-04-22T03:12:41.221Z,23.33
2019-04-22T03:13:55.190Z,27.23
2019-04-22T03:16:14.182Z,25.67
2019-04-22T03:17:08.654Z,17.43
2019-04-22T03:18:21.775Z,17.83
2019-04-22T03:20:14.232Z,21.27
2019-04-22T03:21:33.882Z,26.23
2019-04-22T03:22:34.614Z,22.93
2019-04-22T03:24:51.518Z,18.77
2019-04-22T03:27:52.528Z,16.47
2019-04-22T03:29:07.471Z,15.40
2019-04-22T03:31:54.888Z,16.23
2019-04-22T03:33:44.275Z,15.37
2019-04-22T03:35:52.986Z,15.70
2019-04-22T03:38:11.310Z,17.87
2019-04-22T03:40:13.997Z,17.13
2019-04-22T03:41:31.841Z,18.27
2019-04-22T03:42:35.615Z,18.13
2019-04-22T03:43:35.892Z,18.20
2019-04-22T03:46:55.342Z,17.20
2019-04-22T03:48:05.564Z,17.13
2019-04-22T03:49:12.105Z,17.00
2019-04-22T03:50:19.176Z,17.13
2019-04-22T03:51:19.532Z,17.40
2019-04-22T03:52:20.422Z,17.40
2019-04-22T03:53:29.141Z,18.30
2019-04-22T03:57:07.253Z,17.27
2019-04-22T03:58:49.579Z,19.53
2019-04-22T04:00:03.370Z,19.23
2019-04-22T04:00:55.452Z,19.63
2019-04-22T04:05:33.438Z,20.83
2019-04-22T04:06:35.566Z,23.97
2019-04-22T04:07:45.579Z,23.07
2019-04-22T04:08:33.303Z,23.33
2019-04-22T04:09:42.632Z,25.27
2019-04-22T04:13:03.567Z,25.13
2019-04-22T04:14:11.928Z,23.53
2019-04-22T04:15:17.331Z,22.60
2019-04-22T04:16:12.906Z,22.80
2019-04-22T04:17:26.635Z,20.77
2019-04-22T04:18:30.128Z,22.77
2019-04-22T04:19:47.987Z,24.90
2019-04-22T04:21:09.137Z,21.80
2019-04-22T04:21:41.880Z,21.20
2019-04-22T04:23:05.299Z,20.15
2019-04-22T04:25:16.802Z,20.37
2019-04-22T04:27:43.830Z,27.17
2019-04-22T04:29:36.062Z,20.90
2019-04-22T04:33:48.368Z,19.50
2019-04-22T04:36:01.501Z,20.00
2019-04-22T04:37:10.280Z,18.77
2019-04-22T04:37:58.763Z,18.73
2019-04-22T04:41:34.356Z,19.97
2019-04-22T04:43:37.819Z,18.20
2019-04-22T04:45:45.292Z,19.50
2019-04-22T04:46:59.364Z,19.70
2019-04-22T04:47:57.867Z,19.67
2019-04-22T04:50:07.071Z,23.60
2019-04-22T04:51:20.014Z,27.27
2019-04-22T04:52:27.621Z,24.53
2019-04-22T04:53:22.855Z,24.27
2019-04-22T04:54:30.289Z,24.03
2019-04-22T04:55:46.499Z,23.83
2019-04-22T04:59:05.553Z,22.30
2019-04-22T05:02:10.046Z,22.47
2019-04-22T05:04:25.520Z,25.73
2019-04-22T05:06:39.631Z,21.80
2019-04-22T05:07:48.527Z,21.07
2019-04-22T05:09:47.274Z,21.67
2019-04-22T05:11:01.081Z,21.47
2019-04-22T05:12:01.763Z,21.93
2019-04-22T05:13:10.776Z,21.30
2019-04-22T05:15:42.901Z,21.00
2019-04-22T05:17:27.933Z,21.50
2019-04-22T05:18:29.317Z,20.67
2019-04-22T05:21:43.531Z,23.83
2019-04-22T05:22:44.754Z,22.30
2019-04-22T05:24:00.976Z,22.87
2019-04-22T05:24:58.211Z,24.03
2019-04-22T05:26:12.620Z,23.10
2019-04-22T05:28:15.201Z,22.33
2019-04-22T05:29:26.640Z,23.33
2019-04-22T05:31:38.900Z,23.67
2019-04-22T05:33:48.207Z,26.00
2019-04-22T05:35:09.626Z,24.77
2019-04-22T05:35:54.788Z,22.90
2019-04-22T05:37:00.931Z,23.00
2019-04-22T05:38:13.353Z,22.73
2019-04-22T05:39:14.199Z,21.73
2019-04-22T05:40:25.961Z,22.70
2019-04-22T05:41:32.357Z,23.00
2019-04-22T05:42:29.462Z,23.20
2019-04-22T05:43:42.645Z,23.77
2019-04-22T05:45:56.325Z,22.37
2019-04-22T05:47:04.746Z,24.33
2019-04-22T05:48:10.950Z,23.07
2019-04-22T05:50:18.720Z,28.13
2019-04-22T05:51:25.937Z,25.07
2019-04-22T05:52:34.425Z,24.57
2019-04-22T05:53:32.476Z,23.90
2019-04-22T05:54:42.763Z,22.03
2019-04-22T05:55:48.898Z,20.87
2019-04-22T05:56:47.740Z,21.47
2019-04-22T05:57:59.661Z,21.03
2019-04-22T05:59:04.370Z,21.97
2019-04-22T06:00:19.296Z,22.60
2019-04-22T06:02:30.535Z,21.37
2019-04-22T06:03:35.205Z,22.40
2019-04-22T06:04:29.526Z,22.00
2019-04-22T06:05:35.733Z,21.73
2019-04-22T06:06:45.249Z,21.93
2019-04-22T06:07:57.415Z,21.30
2019-04-22T06:09:02.255Z,22.13
2019-04-22T06:10:04.263Z,19.07
2019-04-22T06:11:21.706Z,19.03
2019-04-22T06:12:09.855Z,19.03
2019-04-22T06:13:17.778Z,19.13
2019-04-22T06:14:24.756Z,18.70
2019-04-22T06:15:36.282Z,18.13
2019-04-22T06:16:44.036Z,17.97
2019-04-22T06:17:54.848Z,18.30
2019-04-22T06:19:00.900Z,18.40
2019-04-22T06:20:02.629Z,17.40
2019-04-22T06:21:11.156Z,15.97
2019-04-22T06:22:22.417Z,16.07
2019-04-22T06:25:51.372Z,15.80
2019-04-22T06:27:41.624Z,14.70
2019-04-22T06:28:51.515Z,15.80
2019-04-22T06:29:58.570Z,13.07
2019-04-22T06:31:06.896Z,12.40
2019-04-22T06:34:22.385Z,14.37
2019-04-22T06:36:37.521Z,13.70
2019-04-22T06:37:46.534Z,14.53
2019-04-22T06:38:39.281Z,13.80
2019-04-22T06:39:51.032Z,14.80
2019-04-22T06:41:07.345Z,14.10
2019-04-22T06:42:11.442Z,15.00
2019-04-22T06:43:19.943Z,13.40
2019-04-22T06:44:29.571Z,13.37
2019-04-22T06:45:27.458Z,14.07
2019-04-22T06:46:27.535Z,14.57
2019-04-22T06:47:47.336Z,14.90
2019-04-22T06:48:34.685Z,15.17
2019-04-22T06:49:41.683Z,15.10
2019-04-22T06:50:51.025Z,14.90
2019-04-22T06:51:55.555Z,14.53
2019-04-22T06:54:07.511Z,14.83
2019-04-22T06:55:16.757Z,14.80
2019-04-22T06:56:16.179Z,15.10
2019-04-22T06:57:25.777Z,15.43
2019-04-22T06:58:28.615Z,14.77
2019-04-22T06:59:31.213Z,14.47
2019-04-22T07:00:42.925Z,15.53
2019-04-22T07:01:55.032Z,14.37
2019-04-22T07:03:10.199Z,14.40
2019-04-22T07:05:03.690Z,13.63
2019-04-22T07:06:09.502Z,13.50
2019-04-22T07:07:12.700Z,12.67
2019-04-22T07:09:04.070Z,13.20
2019-04-22T07:09:34.987Z,12.13
2019-04-22T07:11:37.890Z,10.90
2019-04-22T07:13:01.552Z,10.47
2019-04-22T07:13:57.051Z,10.73
2019-04-22T07:14:53.489Z,11.87
2019-04-22T07:16:20.792Z,12.37
2019-04-22T07:17:07.083Z,11.73
2019-04-22T07:18:18.154Z,11.97
2019-04-22T07:19:20.636Z,13.63
2019-04-22T07:20:31.650Z,12.27
2019-04-22T07:21:32.189Z,9.90
2019-04-22T07:22:38.477Z,9.10
2019-04-22T07:25:56.733Z,8.83
2019-04-22T07:26:58.207Z,10.63
2019-04-22T07:28:08.305Z,11.07
2019-04-22T07:29:07.520Z,8.93
2019-04-22T07:30:22.031Z,9.83
2019-04-22T07:31:17.465Z,9.70
2019-04-22T07:32:48.352Z,9.80
2019-04-22T07:33:32.361Z,9.47
2019-04-22T07:36:54.693Z,8.80
2019-04-22T07:37:47.687Z,9.37
2019-04-22T07:39:01.729Z,9.40
2019-04-22T07:40:02.060Z,8.97
2019-04-22T07:41:10.534Z,8.93
2019-04-22T07:42:19.332Z,8.00
2019-04-22T07:43:30.581Z,8.30
2019-04-22T07:45:39.148Z,8.23
2019-04-22T07:46:43.091Z,8.53
2019-04-22T07:47:44.372Z,8.43
2019-04-22T07:48:51.858Z,7.53
2019-04-22T07:49:59.252Z,6.93
2019-04-22T07:51:03.946Z,6.63
2019-04-22T07:52:05.073Z,7.27
2019-04-22T07:53:11.773Z,6.40
2019-04-22T07:54:14.359Z,6.50
2019-04-22T07:55:25.878Z,6.33
2019-04-22T07:56:24.736Z,7.00
2019-04-22T07:58:37.656Z,5.97
2019-04-22T07:59:52.385Z,5.90
2019-04-22T08:00:47.631Z,6.87
2019-04-22T08:01:55.979Z,6.83
2019-04-22T08:03:06.522Z,6.07
2019-04-22T08:06:17.314Z,6.13
2019-04-22T08:07:26.040Z,6.47
2019-04-22T08:08:28.962Z,6.00
2019-04-22T08:09:37.433Z,5.67
2019-04-22T08:10:43.062Z,5.63
2019-04-22T08:11:49.975Z,5.90
2019-04-22T08:12:51.902Z,5.27
2019-04-22T08:13:54.843Z,4.80
2019-04-22T08:15:00.369Z,4.97
2019-04-22T08:16:16.357Z,4.37
2019-04-22T08:17:38.714Z,4.40
2019-04-22T08:18:17.770Z,3.97
2019-04-22T08:20:30.833Z,3.93
2019-04-22T08:21:38.229Z,4.30
2019-04-22T08:22:42.658Z,3.87
2019-04-22T08:23:50.863Z,3.90
2019-04-22T08:24:54.279Z,4.10
2019-04-22T08:25:59.151Z,3.80
2019-04-22T08:27:09.135Z,3.35
2019-04-22T08:28:13.377Z,3.65
2019-04-22T08:29:21.983Z,3.67
2019-04-22T08:30:29.040Z,4.20
2019-04-22T08:31:28.667Z,3.77
2019-04-22T08:32:38.056Z,3.60
2019-04-22T08:34:42.836Z,3.83
2019-04-22T08:36:09.044Z,3.67
2019-04-22T08:39:08.327Z,5.20
2019-04-22T08:40:12.476Z,3.58
2019-04-22T08:41:27.300Z,3.55
2019-04-22T08:42:36.539Z,3.50
2019-04-22T08:43:39.487Z,4.37
2019-04-22T08:45:05.828Z,4.15
2019-04-22T08:45:51.146Z,3.17
2019-04-22T08:46:50.699Z,4.10
2019-04-22T08:47:55.272Z,4.12
2019-04-22T08:49:00.817Z,4.25
2019-04-22T08:50:10.365Z,4.10
2019-04-22T08:51:15.503Z,3.83
2019-04-22T08:52:20.807Z,3.42
2019-04-22T08:53:28.620Z,3.92
2019-04-22T08:54:30.895Z,4.12
2019-04-22T08:55:41.783Z,4.33
2019-04-22T08:58:57.062Z,3.77
2019-04-22T09:01:05.106Z,4.65
2019-04-22T09:02:17.462Z,3.75
2019-04-22T09:03:14.050Z,3.22
2019-04-22T09:04:11.962Z,3.77
2019-04-22T09:05:42.064Z,3.42
2019-04-22T09:06:39.664Z,3.52
2019-04-22T09:07:38.160Z,3.30
2019-04-22T09:08:41.772Z,4.10
2019-04-22T09:09:47.253Z,4.00
2019-04-22T09:10:51.936Z,3.50
2019-04-22T09:14:14.072Z,3.52
2019-04-22T09:15:20.619Z,3.15
2019-04-22T09:16:27.986Z,3.50
2019-04-22T09:17:28.592Z,3.37
2019-04-22T09:18:35.118Z,3.60
2019-04-22T09:19:34.061Z,3.60
2019-04-22T09:20:54.871Z,3.52
2019-04-22T09:21:57.542Z,3.50
2019-04-22T09:22:56.799Z,3.58
2019-04-22T09:25:03.303Z,3.72
2019-04-22T09:26:09.476Z,3.90
2019-04-22T09:28:22.808Z,3.52
2019-04-22T09:29:32.514Z,3.50
2019-04-22T09:32:01.751Z,3.67
2019-04-22T09:32:44.766Z,3.35
2019-04-22T09:33:47.660Z,3.70
2019-04-22T09:34:51.962Z,3.27
2019-04-22T09:36:09.410Z,3.50
2019-04-22T09:37:11.701Z,3.60
2019-04-22T09:38:25.733Z,4.08
2019-04-22T09:39:28.295Z,3.90
2019-04-22T09:40:21.792Z,3.30
2019-04-22T09:41:31.533Z,3.65
2019-04-22T09:42:38.864Z,3.60
2019-04-22T09:44:47.807Z,3.33
2019-04-22T09:45:47.897Z,3.58
2019-04-22T09:46:54.673Z,3.20
2019-04-22T09:48:00.947Z,3.58
2019-04-22T09:49:12.262Z,3.37
2019-04-22T09:50:29.417Z,3.42
2019-04-22T09:51:11.581Z,3.40
2019-04-22T09:52:25.725Z,3.40
2019-04-22T09:53:34.019Z,3.42
2019-04-22T09:54:39.940Z,3.30
2019-04-22T09:55:37.376Z,3.33
2019-04-22T09:56:43.940Z,3.60
2019-04-22T09:57:52.474Z,3.77
2019-04-22T09:58:50.505Z,3.52
2019-04-22T10:00:04.338Z,3.45
2019-04-22T10:01:19.046Z,2.83
2019-04-22T10:02:31.786Z,3.35
2019-04-22T10:03:20.401Z,3.22
2019-04-22T10:04:29.118Z,3.27
2019-04-22T10:05:34.135Z,3.20
2019-04-22T10:06:45.748Z,3.15
2019-04-22T10:07:47.338Z,3.35
2019-04-22T10:09:02.090Z,3.47
2019-04-22T10:11:05.997Z,3.58
2019-04-22T10:12:02.678Z,3.92
2019-04-22T10:13:12.872Z,3.20
2019-04-22T10:14:18.746Z,3.77
2019-04-22T10:15:20.886Z,3.45
2019-04-22T10:17:31.624Z,3.27
2019-04-22T10:18:38.713Z,3.60
2019-04-22T10:19:43.910Z,3.42
2019-04-22T10:20:54.457Z,3.52
2019-04-22T10:22:16.667Z,3.83
2019-04-22T10:22:57.702Z,3.20
2019-04-22T10:25:10.754Z,3.02
2019-04-22T10:26:23.543Z,3.22
2019-04-22T10:27:20.838Z,3.37
2019-04-22T10:28:32.347Z,3.80
2019-04-22T10:29:39.238Z,3.30
2019-04-22T10:30:46.170Z,3.80
2019-04-22T10:31:43.624Z,3.42
2019-04-22T10:32:48.153Z,3.50
2019-04-22T10:33:48.215Z,3.52
2019-04-22T10:34:47.281Z,4.00
2019-04-22T10:35:45.728Z,3.90
2019-04-22T10:36:53.134Z,3.50
2019-04-22T10:37:56.363Z,4.08
2019-04-22T10:39:00.332Z,3.67
2019-04-22T10:40:09.134Z,3.77
2019-04-22T10:41:12.215Z,3.20
2019-04-22T10:42:17.407Z,3.60
2019-04-22T10:43:21.225Z,3.62
2019-04-22T10:44:24.840Z,3.70
2019-04-22T10:45:28.478Z,3.90
2019-04-22T10:46:32.158Z,3.50
2019-04-22T10:47:36.080Z,3.83
2019-04-22T10:48:40.135Z,3.70
2019-04-22T10:49:44.501Z,3.70
2019-04-22T10:50:48.923Z,4.28
2019-04-22T10:51:52.919Z,3.42
2019-04-22T10:52:57.429Z,3.50
2019-04-22T10:54:01.827Z,3.77
2019-04-22T10:55:09.584Z,3.37
2019-04-22T10:56:14.765Z,3.60
2019-04-22T10:57:20.036Z,3.70
2019-04-22T10:58:24.839Z,4.10
2019-04-22T10:59:28.950Z,3.67
2019-04-22T11:00:35.594Z,3.27
2019-04-22T11:01:40.444Z,3.52
2019-04-22T11:02:45.585Z,3.58
2019-04-22T11:03:51.007Z,3.67
2019-04-22T11:04:54.840Z,3.40
2019-04-22T11:05:59.320Z,3.45
2019-04-22T11:07:06.908Z,3.20
2019-04-22T11:08:10.236Z,3.60
2019-04-22T11:09:14.278Z,3.62
2019-04-22T11:10:35.493Z,3.40
2019-04-22T11:11:34.812Z,3.50
2019-04-22T11:12:32.269Z,3.67
2019-04-22T11:13:35.841Z,3.50
2019-04-22T11:14:42.755Z,3.20
2019-04-22T11:15:45.046Z,3.40
2019-04-22T11:16:49.752Z,3.65
2019-04-22T11:17:53.796Z,3.45
2019-04-22T11:18:57.426Z,4.15
2019-04-22T11:20:01.906Z,3.67
2019-04-22T11:21:05.724Z,3.05
2019-04-22T11:22:16.892Z,3.12
2019-04-22T11:23:14.734Z,3.20
2019-04-22T11:24:18.851Z,3.55
2019-04-22T11:25:23.616Z,3.22
2019-04-22T11:26:28.281Z,3.65
2019-04-22T11:27:32.907Z,3.45
2019-04-22T11:28:38.037Z,3.40
2019-04-22T11:29:41.856Z,3.90
2019-04-22T11:30:45.580Z,3.58
2019-04-22T11:31:50.505Z,3.65
2019-04-22T11:32:54.432Z,3.00
2019-04-22T11:33:58.559Z,3.65
2019-04-22T11:35:03.631Z,3.33
2019-04-22T11:36:08.060Z,3.47
2019-04-22T11:37:12.274Z,4.25
2019-04-22T11:38:17.261Z,3.65
2019-04-22T11:39:21.800Z,3.30
2019-04-22T11:40:34.789Z,3.22
2019-04-22T11:41:31.242Z,3.33
2019-04-22T11:42:36.345Z,3.27
2019-04-22T11:43:41.171Z,3.42
2019-04-22T11:44:45.414Z,3.95
2019-04-22T11:45:49.469Z,3.42
2019-04-22T11:46:53.664Z,3.12
2019-04-22T11:47:57.382Z,3.17
2019-04-22T11:49:01.012Z,3.60
2019-04-22T11:50:08.076Z,3.35
2019-04-22T11:51:11.735Z,3.25
2019-04-22T11:52:17.276Z,3.70
2019-04-22T11:53:20.768Z,3.50
2019-04-22T11:54:25.118Z,3.30
2019-04-22T11:55:28.953Z,3.77
2019-04-22T11:56:32.665Z,3.50
2019-04-22T11:57:37.175Z,3.30
2019-04-22T11:58:40.877Z,3.22
2019-04-22T11:59:46.831Z,3.72
2019-04-22T12:00:51.944Z,3.55
2019-04-22T12:01:57.050Z,3.15
2019-04-22T12:03:00.938Z,3.62
2019-04-22T12:04:04.653Z,3.30
2019-04-22T12:05:11.985Z,3.83
2019-04-22T12:06:15.863Z,3.67
2019-04-22T12:07:21.207Z,3.50
2019-04-22T12:08:25.226Z,3.45
2019-04-22T12:09:29.910Z,3.40
2019-04-22T12:10:42.422Z,3.70
2019-04-22T12:11:40.483Z,3.58
2019-04-22T12:12:46.591Z,3.70
2019-04-22T12:13:49.890Z,3.42
2019-04-22T12:14:54.434Z,3.62
2019-04-22T12:15:59.038Z,3.92
2019-04-22T12:17:03.572Z,3.40
2019-04-22T12:18:09.216Z,3.58
2019-04-22T12:19:13.329Z,3.80
2019-04-22T12:20:20.187Z,3.52
2019-04-22T12:21:24.027Z,3.52
2019-04-22T12:22:29.136Z,3.60
2019-04-22T12:23:32.949Z,3.65
2019-04-22T12:24:38.375Z,3.67
2019-04-22T12:25:51.626Z,3.52
2019-04-22T12:26:48.387Z,3.83
2019-04-22T12:27:52.955Z,3.10
2019-04-22T12:28:57.271Z,3.83
2019-04-22T12:30:02.994Z,3.25
2019-04-22T12:31:06.688Z,3.85
2019-04-22T12:32:11.537Z,3.45
2019-04-22T12:33:15.730Z,3.35
2019-04-22T12:34:21.553Z,3.60
2019-04-22T12:35:26.292Z,3.37
2019-04-22T12:36:30.717Z,3.60
2019-04-22T12:37:43.573Z,3.77
2019-04-22T12:38:40.018Z,3.98
2019-04-22T12:39:45.298Z,3.90
2019-04-22T12:40:56.583Z,3.58
2019-04-22T12:41:56.105Z,3.40
2019-04-22T12:43:04.161Z,3.80
2019-04-22T12:44:07.470Z,4.10
2019-04-22T12:45:12.270Z,4.50
2019-04-22T12:46:16.351Z,3.15
2019-04-22T12:47:20.265Z,3.50
2019-04-22T12:48:25.263Z,3.50
2019-04-22T12:49:29.982Z,3.35
2019-04-22T12:50:37.241Z,3.50
2019-04-22T12:51:39.058Z,3.37
2019-04-22T12:52:50.516Z,3.80
2019-04-22T12:53:48.874Z,3.40
2019-04-22T12:54:52.991Z,3.83
2019-04-22T12:55:57.382Z,3.27
2019-04-22T12:57:01.846Z,3.62
2019-04-22T12:58:05.557Z,3.87
2019-04-22T12:59:09.757Z,4.15
2019-04-22T13:00:15.635Z,3.55
2019-04-22T13:01:19.509Z,3.52
2019-04-22T13:02:23.190Z,3.90
2019-04-22T13:03:26.848Z,3.80
2019-04-22T13:04:32.158Z,3.83
2019-04-22T13:05:37.463Z,3.40
2019-04-22T13:06:41.971Z,3.50
2019-04-22T13:07:45.777Z,3.92
2019-04-22T13:08:49.847Z,3.20
2019-04-22T13:09:55.138Z,3.90
2019-04-22T13:11:05.774Z,3.58
2019-04-22T13:12:04.406Z,3.33
2019-04-22T13:13:09.202Z,3.80
2019-04-22T13:14:12.980Z,3.52
2019-04-22T13:15:19.984Z,3.65
2019-04-22T13:16:25.007Z,3.80
2019-04-22T13:17:29.166Z,3.12
2019-04-22T13:18:39.971Z,3.08
2019-04-22T13:19:38.380Z,3.55
2019-04-22T13:20:42.342Z,3.35
2019-04-22T13:21:46.806Z,3.80
2019-04-22T13:22:50.676Z,3.25
2019-04-22T13:23:54.886Z,3.22
2019-04-22T13:24:59.703Z,3.37
2019-04-22T13:26:03.487Z,3.22
2019-04-22T13:27:08.595Z,3.22
2019-04-22T13:28:13.279Z,4.30
2019-04-22T13:29:17.167Z,5.40
2019-04-22T13:30:22.886Z,3.65
2019-04-22T13:31:26.959Z,3.45
2019-04-22T13:32:31.421Z,4.47
2019-04-22T13:33:35.090Z,3.85
2019-04-22T13:34:45.833Z,3.70
2019-04-22T13:35:45.804Z,3.40
2019-04-22T13:36:50.344Z,3.70
2019-04-22T13:37:54.950Z,3.52
2019-04-22T13:38:58.914Z,3.33
2019-04-22T13:40:03.537Z,3.37
2019-04-22T13:41:21.473Z,3.50
2019-04-22T13:42:18.002Z,3.37
2019-04-22T13:43:18.910Z,3.40
2019-04-22T13:44:23.037Z,3.33
2019-04-22T13:45:27.638Z,3.65
2019-04-22T13:46:33.646Z,3.20
2019-04-22T13:47:59.646Z,3.37
2019-04-22T13:49:08.735Z,3.55
2019-04-22T13:50:31.344Z,3.30
2019-04-22T13:51:48.759Z,4.05
2019-04-22T13:53:46.287Z,4.15
2019-04-22T13:56:45.115Z,3.77
2019-04-22T13:57:41.399Z,3.45
2019-04-22T13:58:44.907Z,3.40
2019-04-22T13:59:44.047Z,3.35
2019-04-22T14:00:42.847Z,3.80
2019-04-22T14:01:48.471Z,3.62
2019-04-22T14:02:58.157Z,3.60
2019-04-22T14:04:07.127Z,3.83
2019-04-22T14:05:12.913Z,3.50
2019-04-22T14:06:16.732Z,3.27
2019-04-22T14:07:20.913Z,3.67
2019-04-22T14:08:24.965Z,3.20
2019-04-22T14:09:28.735Z,3.60
2019-04-22T14:10:32.367Z,3.37
2019-04-22T14:11:46.147Z,3.30
2019-04-22T14:12:42.539Z,3.47
2019-04-22T14:13:47.917Z,3.40
2019-04-22T14:14:52.574Z,3.40
2019-04-22T14:15:57.034Z,3.40
2019-04-22T14:17:01.138Z,3.77
2019-04-22T14:18:07.268Z,3.20
2019-04-22T14:19:11.913Z,3.20
2019-04-22T14:20:16.334Z,3.10
2019-04-22T14:21:21.041Z,3.47
2019-04-22T14:22:26.261Z,4.08
2019-04-22T14:23:30.868Z,3.80
2019-04-22T14:24:34.765Z,2.80
2019-04-22T14:25:38.780Z,3.33
2019-04-22T14:26:54.954Z,3.70
2019-04-22T14:27:56.545Z,3.55
2019-04-22T14:28:53.538Z,3.25
2019-04-22T14:29:57.711Z,3.47
2019-04-22T14:31:02.375Z,3.25
2019-04-22T14:32:15.041Z,3.37
2019-04-22T14:33:12.114Z,3.33
2019-04-22T14:34:16.953Z,3.15
2019-04-22T14:35:22.998Z,3.52
2019-04-22T14:36:27.573Z,3.05
2019-04-22T14:37:32.156Z,3.37
2019-04-22T14:38:36.763Z,3.40
2019-04-22T14:39:41.870Z,3.98
2019-04-22T14:40:45.602Z,3.50
2019-04-22T14:43:13.217Z,3.22
2019-04-22T14:44:24.249Z,3.50
2019-04-22T14:45:05.166Z,3.20
2019-04-22T14:45:41.831Z,3.60
2019-04-22T14:46:45.577Z,3.08
2019-04-22T14:47:42.151Z,3.62
2019-04-22T14:48:57.316Z,3.35
2019-04-22T14:49:53.908Z,3.77
2019-04-22T14:50:51.736Z,3.40
2019-04-22T14:52:03.555Z,3.60
2019-04-22T14:53:03.957Z,3.98
2019-04-22T14:54:06.667Z,3.20
2019-04-22T14:55:06.098Z,3.47
2019-04-22T14:56:02.313Z,3.40
2019-04-22T14:57:07.353Z,4.10
2019-04-22T14:58:11.216Z,3.42
2019-04-22T14:59:14.818Z,3.70
2019-04-22T15:00:19.821Z,3.60
2019-04-22T15:01:24.645Z,3.90
2019-04-22T15:02:29.536Z,3.60
2019-04-22T15:03:33.511Z,3.65
2019-04-22T15:04:37.550Z,3.87
2019-04-22T15:05:41.985Z,3.90
2019-04-22T15:06:48.276Z,3.62
2019-04-22T15:07:51.109Z,4.20
2019-04-22T15:08:58.018Z,3.85
2019-04-22T15:10:00.127Z,3.60
2019-04-22T15:11:05.920Z,5.33
2019-04-22T15:12:23.341Z,4.05
2019-04-22T15:13:17.810Z,4.42
2019-04-22T15:14:21.683Z,4.60
2019-04-22T15:15:45.224Z,3.65
2019-04-22T15:16:53.016Z,3.62
2019-04-22T15:18:01.122Z,3.63
2019-04-22T15:19:07.649Z,3.57
2019-04-22T15:20:19.657Z,3.52
2019-04-22T15:21:25.146Z,3.77
2019-04-22T15:22:30.850Z,3.77
2019-04-22T15:23:34.853Z,3.40
2019-04-22T15:24:38.842Z,3.90
2019-04-22T15:25:43.908Z,4.63
2019-04-22T15:26:48.444Z,4.40
2019-04-22T15:27:53.368Z,3.87
2019-04-22T15:28:57.730Z,3.70
2019-04-22T15:30:01.484Z,3.63
2019-04-22T15:31:05.707Z,3.40
2019-04-22T15:32:09.533Z,3.73
2019-04-22T15:33:13.162Z,3.60
2019-04-22T15:34:18.530Z,3.97
2019-04-22T15:35:23.184Z,3.43
2019-04-22T15:36:27.975Z,3.80
2019-04-22T15:37:33.207Z,3.40
2019-04-22T15:38:38.096Z,3.83
2019-04-22T15:39:42.021Z,3.70
2019-04-22T15:40:46.925Z,3.37
2019-04-22T15:42:01.488Z,3.50
2019-04-22T15:42:56.947Z,3.40
2019-04-22T15:44:01.863Z,3.87
2019-04-22T15:45:08.535Z,3.57
2019-04-22T15:46:13.962Z,3.90
2019-04-22T15:47:18.844Z,3.80
2019-04-22T15:48:23.232Z,3.37
2019-04-22T15:49:27.864Z,3.80
2019-04-22T15:50:32.798Z,3.57
2019-04-22T15:51:36.511Z,3.83
2019-04-22T15:52:46.083Z,3.47
2019-04-22T15:53:45.871Z,3.23
2019-04-22T15:54:51.813Z,3.37
2019-04-22T15:55:54.876Z,3.60
2019-04-22T15:56:59.019Z,3.60
2019-04-22T15:58:03.887Z,4.20
2019-04-22T15:59:27.341Z,3.00
2019-04-22T16:00:25.454Z,3.70
2019-04-22T16:01:26.007Z,3.57
2019-04-22T16:02:25.582Z,3.70
2019-04-22T16:03:29.354Z,3.83
2019-04-22T16:04:33.025Z,3.77
2019-04-22T16:05:36.657Z,4.00
2019-04-22T16:06:41.136Z,4.03
2019-04-22T16:07:45.817Z,4.27
2019-04-22T16:08:49.857Z,4.03
2019-04-22T16:09:54.030Z,3.87
2019-04-22T16:10:57.861Z,3.63
2019-04-22T16:12:13.710Z,4.13
2019-04-22T16:13:13.157Z,3.73
2019-04-22T16:14:15.112Z,3.70
2019-04-22T16:15:18.414Z,3.90
2019-04-22T16:16:22.917Z,3.90
2019-04-22T16:17:26.796Z,4.30
2019-04-22T16:18:30.745Z,4.73
2019-04-22T16:19:35.141Z,4.43
2019-04-22T16:20:40.411Z,4.93
2019-04-22T16:21:53.676Z,4.50
2019-04-22T16:23:07.840Z,4.03
2019-04-22T16:24:20.214Z,4.40
2019-04-22T16:25:45.235Z,4.47
2019-04-22T16:26:51.938Z,4.20
2019-04-22T16:27:56.452Z,4.17
2019-04-22T16:29:01.321Z,4.00
2019-04-22T16:30:07.643Z,4.17